Awendaw, SC

4:30 PM EST on February 06, 2016 (GMT -0500)
Wellesley Place - Park West | | Change Station
CLOSE
Current Station
Personal Weather Station
Location: Mount Pleasant, SC
Elevation: 34 ft
Nearby Weather Stations
Active Advisory: Wind Advisory

Elev 34 ft 32.89 °N, 79.79 °W | Updated 16 seconds ago

Overcast
Overcast
50.9 °F
Feels Like 50.9 °F
N
0.0
Wind Variable Wind from SSE
Gusts 0.0 mph

Today
High -- | Low -- °F
--% Chance of Precip.
Yesterday
High -- | Low -- °F
Precip. -- in
Pressure 30.23 in
Visibility 10.0 miles
Clouds Mostly Cloudy 3800 ft
Overcast 5000 ft
Dew Point 38 °F
Humidity 61%
Rainfall 0.00 in
Snow Depth Not available.
7:10 AM 5:55 PM
Waning Crescent, 4% visible
METAR KCHS 062056Z 01010KT 10SM -RA BKN038 OVC050 11/M01 A3023 RMK AO2 RAB43 SLP237 P0000 60000 T01111006 56019
Pressure 30.23 in
Visibility 10.0 miles
Clouds Mostly Cloudy 3800 ft
Overcast 5000 ft
Dew Point 38 °F
Humidity 61%
Rainfall 0.00 in
Snow Depth Not available.
7:10 AM 5:55 PM
Waning Crescent, 4% visible
METAR KCHS 062056Z 01010KT 10SM -RA BKN038 OVC050 11/M01 A3023 RMK AO2 RAB43 SLP237 P0000 60000 T01111006 56019

10-Day Weather Forecast

Almanac

Astronomy

Feb. 06, 2016 Rise Set
Actual Time
Civil Twilight
Nautical Twilight
Astronomical Twilight
Moon
Length of Visible Light
Length of Day
Tomorrow will be .
, % of the Moon is Illuminated

Today's Extremes

State Highs State Lows

Community

WunderPhotos

Upload Photos

1,891,050 photos uploaded!

WunderBlog® & News

Nearby

Air Quality

  Air Quality AQ Index Pollutant
Not available.

Snow Depth

Station Depth Elevation

Earthquake Activity

City Distance Mag. Time & Date
Minimum magnitude displayed is 2.5.

Coastal Water Temperatures

Place Temperature

Stations

Nearby Weather Stations

Station Location Temp. Windchill Dew Point Humidity Wind Precip. Elev Updated Type
                   

Watches & Warnings

Wind Advisory
Issued: 4:29 PM EST Feb. 6, 2016 – National Weather Service

... Wind Advisory in effect from 10 am to 7 PM EST Sunday...

The National Weather Service in Charleston has issued a Wind
Advisory... which is in effect from 10 am to 7 PM EST Sunday.

* Locations... Charleston County... especially along and south of
U.S. Route 17.

* Winds... north to northwest 20-30 mph with gusts to 40 mph.

* Impacts... strong winds will make travel difficult... especially
for high profile vehicles and on elevated surfaces such as
bridges and overpasses. Light weight objects such as trash
cans and lawn furniture will also be blown around.

Precautionary/preparedness actions...

Be prepared for strong winds. Extra caution should be taken while
driving high profile vehicles and on bridges and overpasses.
Light weight objects such as trash cans and lawn furniture should
be secured.